sensor_id;sensor_type;location;lat;lon;timestamp;pressure;altitude;pressure_sealevel;temperature
22828;BMP180;11580;52.562;13.418;2022-09-12T00:02:00;100863.00;;;17.80
22828;BMP180;11580;52.562;13.418;2022-09-12T00:04:27;100851.00;;;17.70
22828;BMP180;11580;52.562;13.418;2022-09-12T00:06:54;100857.00;;;17.70
22828;BMP180;11580;52.562;13.418;2022-09-12T00:09:23;100850.00;;;17.70
22828;BMP180;11580;52.562;13.418;2022-09-12T00:11:50;100851.00;;;17.60
22828;BMP180;11580;52.562;13.418;2022-09-12T00:14:18;100848.00;;;17.60
22828;BMP180;11580;52.562;13.418;2022-09-12T00:16:45;100845.00;;;17.50
22828;BMP180;11580;52.562;13.418;2022-09-12T00:19:13;100844.00;;;17.50
22828;BMP180;11580;52.562;13.418;2022-09-12T00:21:40;100836.00;;;17.50
22828;BMP180;11580;52.562;13.418;2022-09-12T00:24:09;100844.00;;;17.40
22828;BMP180;11580;52.562;13.418;2022-09-12T00:26:37;100844.00;;;17.40
22828;BMP180;11580;52.562;13.418;2022-09-12T00:29:05;100838.00;;;17.40
22828;BMP180;11580;52.562;13.418;2022-09-12T00:31:32;100849.00;;;17.40
22828;BMP180;11580;52.562;13.418;2022-09-12T00:34:00;100843.00;;;17.30
22828;BMP180;11580;52.562;13.418;2022-09-12T00:36:28;100844.00;;;17.30
22828;BMP180;11580;52.562;13.418;2022-09-12T00:38:56;100808.00;;;17.30
22828;BMP180;11580;52.562;13.418;2022-09-12T00:41:25;100837.00;;;17.20
22828;BMP180;11580;52.562;13.418;2022-09-12T00:43:56;100837.00;;;17.20
22828;BMP180;11580;52.562;13.418;2022-09-12T00:46:32;100838.00;;;17.20
22828;BMP180;11580;52.562;13.418;2022-09-12T00:49:06;100833.00;;;17.10
22828;BMP180;11580;52.562;13.418;2022-09-12T00:51:36;100831.00;;;17.10
22828;BMP180;11580;52.562;13.418;2022-09-12T00:54:08;100839.00;;;17.10
22828;BMP180;11580;52.562;13.418;2022-09-12T00:56:39;100833.00;;;17.10
22828;BMP180;11580;52.562;13.418;2022-09-12T00:59:14;100832.00;;;17.10
22828;BMP180;11580;52.562;13.418;2022-09-12T01:01:46;100835.00;;;17.00
22828;BMP180;11580;52.562;13.418;2022-09-12T01:04:16;100833.00;;;17.00
22828;BMP180;11580;52.562;13.418;2022-09-12T01:06:45;100834.00;;;17.00
22828;BMP180;11580;52.562;13.418;2022-09-12T01:09:18;100837.00;;;17.00
22828;BMP180;11580;52.562;13.418;2022-09-12T01:11:48;100833.00;;;17.00
22828;BMP180;11580;52.562;13.418;2022-09-12T01:14:19;100821.00;;;16.90
22828;BMP180;11580;52.562;13.418;2022-09-12T01:16:49;100836.00;;;16.90
22828;BMP180;11580;52.562;13.418;2022-09-12T01:22:46;100832.00;;;16.90
22828;BMP180;11580;52.562;13.418;2022-09-12T01:25:27;100814.00;;;16.80
22828;BMP180;11580;52.562;13.418;2022-09-12T01:28:26;100836.00;;;16.80
22828;BMP180;11580;52.562;13.418;2022-09-12T01:31:07;100833.00;;;16.80
22828;BMP180;11580;52.562;13.418;2022-09-12T01:33:55;100804.00;;;16.80
22828;BMP180;11580;52.562;13.418;2022-09-12T01:36:41;100833.00;;;16.80
22828;BMP180;11580;52.562;13.418;2022-09-12T01:39:26;100806.00;;;16.80
22828;BMP180;11580;52.562;13.418;2022-09-12T01:42:07;100833.00;;;16.80
22828;BMP180;11580;52.562;13.418;2022-09-12T01:44:45;100828.00;;;16.70
22828;BMP180;11580;52.562;13.418;2022-09-12T01:47:20;100829.00;;;16.70
22828;BMP180;11580;52.562;13.418;2022-09-12T01:49:56;100812.00;;;16.70
22828;BMP180;11580;52.562;13.418;2022-09-12T01:52:31;100821.00;;;16.60
22828;BMP180;11580;52.562;13.418;2022-09-12T01:55:09;100816.00;;;16.70
22828;BMP180;11580;52.562;13.418;2022-09-12T01:57:44;100809.00;;;16.70
22828;BMP180;11580;52.562;13.418;2022-09-12T02:00:13;100820.00;;;16.70
22828;BMP180;11580;52.562;13.418;2022-09-12T02:02:48;100814.00;;;16.70
22828;BMP180;11580;52.562;13.418;2022-09-12T02:05:24;100812.00;;;16.60
22828;BMP180;11580;52.562;13.418;2022-09-12T02:08:02;100819.00;;;16.60
22828;BMP180;11580;52.562;13.418;2022-09-12T02:10:39;100813.00;;;16.60
22828;BMP180;11580;52.562;13.418;2022-09-12T02:13:14;100817.00;;;16.60
22828;BMP180;11580;52.562;13.418;2022-09-12T02:15:51;100815.00;;;16.60
22828;BMP180;11580;52.562;13.418;2022-09-12T02:18:20;100813.00;;;16.50
22828;BMP180;11580;52.562;13.418;2022-09-12T02:20:50;100816.00;;;16.60
22828;BMP180;11580;52.562;13.418;2022-09-12T02:23:22;100825.00;;;16.50
22828;BMP180;11580;52.562;13.418;2022-09-12T02:25:57;100812.00;;;16.50
22828;BMP180;11580;52.562;13.418;2022-09-12T02:28:30;100817.00;;;16.50
22828;BMP180;11580;52.562;13.418;2022-09-12T02:31:10;100786.00;;;16.50
22828;BMP180;11580;52.562;13.418;2022-09-12T02:33:48;100815.00;;;16.50
22828;BMP180;11580;52.562;13.418;2022-09-12T02:36:31;100809.00;;;16.50
22828;BMP180;11580;52.562;13.418;2022-09-12T02:39:00;100811.00;;;16.40
22828;BMP180;11580;52.562;13.418;2022-09-12T02:41:27;100797.00;;;16.40
22828;BMP180;11580;52.562;13.418;2022-09-12T02:43:55;100810.00;;;16.40
22828;BMP180;11580;52.562;13.418;2022-09-12T02:46:27;100805.00;;;16.40
22828;BMP180;11580;52.562;13.418;2022-09-12T02:48:58;100814.00;;;16.40
22828;BMP180;11580;52.562;13.418;2022-09-12T02:51:26;100811.00;;;16.40
22828;BMP180;11580;52.562;13.418;2022-09-12T02:53:53;100814.00;;;16.30
22828;BMP180;11580;52.562;13.418;2022-09-12T02:56:26;100811.00;;;16.30
22828;BMP180;11580;52.562;13.418;2022-09-12T02:58:58;100816.00;;;16.30
22828;BMP180;11580;52.562;13.418;2022-09-12T03:01:42;100817.00;;;16.30
22828;BMP180;11580;52.562;13.418;2022-09-12T03:07:33;100817.00;;;16.30
22828;BMP180;11580;52.562;13.418;2022-09-12T03:10:10;100818.00;;;16.30
22828;BMP180;11580;52.562;13.418;2022-09-12T03:12:51;100818.00;;;16.30
22828;BMP180;11580;52.562;13.418;2022-09-12T03:15:40;100815.00;;;16.20
22828;BMP180;11580;52.562;13.418;2022-09-12T03:18:33;100804.00;;;16.20
22828;BMP180;11580;52.562;13.418;2022-09-12T03:21:17;100805.00;;;16.20
22828;BMP180;11580;52.562;13.418;2022-09-12T03:24:02;100809.00;;;16.20
22828;BMP180;11580;52.562;13.418;2022-09-12T03:26:38;100813.00;;;16.20
22828;BMP180;11580;52.562;13.418;2022-09-12T03:29:09;100813.00;;;16.10
22828;BMP180;11580;52.562;13.418;2022-09-12T03:31:49;100817.00;;;16.10
22828;BMP180;11580;52.562;13.418;2022-09-12T03:34:16;100809.00;;;16.10
22828;BMP180;11580;52.562;13.418;2022-09-12T03:36:45;100810.00;;;16.00
22828;BMP180;11580;52.562;13.418;2022-09-12T03:39:13;100814.00;;;16.10
22828;BMP180;11580;52.562;13.418;2022-09-12T03:41:40;100816.00;;;16.10
22828;BMP180;11580;52.562;13.418;2022-09-12T03:44:08;100824.00;;;16.10
22828;BMP180;11580;52.562;13.418;2022-09-12T03:46:35;100813.00;;;16.10
22828;BMP180;11580;52.562;13.418;2022-09-12T03:49:03;100814.00;;;16.00
22828;BMP180;11580;52.562;13.418;2022-09-12T03:51:30;100814.00;;;16.00
22828;BMP180;11580;52.562;13.418;2022-09-12T03:53:59;100816.00;;;16.10
22828;BMP180;11580;52.562;13.418;2022-09-12T03:56:26;100825.00;;;16.00
22828;BMP180;11580;52.562;13.418;2022-09-12T03:58:54;100819.00;;;16.00
22828;BMP180;11580;52.562;13.418;2022-09-12T04:01:21;100817.00;;;16.00
22828;BMP180;11580;52.562;13.418;2022-09-12T04:03:50;100813.00;;;16.00
22828;BMP180;11580;52.562;13.418;2022-09-12T04:06:20;100826.00;;;16.00
22828;BMP180;11580;52.562;13.418;2022-09-12T04:08:49;100830.00;;;16.00
22828;BMP180;11580;52.562;13.418;2022-09-12T04:11:20;100815.00;;;16.00
22828;BMP180;11580;52.562;13.418;2022-09-12T04:13:48;100825.00;;;16.00
22828;BMP180;11580;52.562;13.418;2022-09-12T04:16:15;100800.00;;;16.00
22828;BMP180;11580;52.562;13.418;2022-09-12T04:18:43;100817.00;;;16.00
22828;BMP180;11580;52.562;13.418;2022-09-12T04:21:14;100810.00;;;16.00
22828;BMP180;11580;52.562;13.418;2022-09-12T04:23:42;100817.00;;;16.00
22828;BMP180;11580;52.562;13.418;2022-09-12T04:26:11;100813.00;;;16.00
22828;BMP180;11580;52.562;13.418;2022-09-12T04:28:40;100814.00;;;16.00
22828;BMP180;11580;52.562;13.418;2022-09-12T04:31:11;100821.00;;;16.00
22828;BMP180;11580;52.562;13.418;2022-09-12T04:33:40;100817.00;;;16.00
22828;BMP180;11580;52.562;13.418;2022-09-12T04:36:11;100815.00;;;16.00
22828;BMP180;11580;52.562;13.418;2022-09-12T04:38:42;100811.00;;;16.00
22828;BMP180;11580;52.562;13.418;2022-09-12T04:41:11;100784.00;;;16.00
22828;BMP180;11580;52.562;13.418;2022-09-12T04:43:40;100820.00;;;16.00
22828;BMP180;11580;52.562;13.418;2022-09-12T04:46:10;100817.00;;;16.00
22828;BMP180;11580;52.562;13.418;2022-09-12T04:48:37;100797.00;;;16.00
22828;BMP180;11580;52.562;13.418;2022-09-12T04:51:10;100822.00;;;16.00
22828;BMP180;11580;52.562;13.418;2022-09-12T04:53:38;100811.00;;;16.00
22828;BMP180;11580;52.562;13.418;2022-09-12T04:56:08;100811.00;;;16.10
22828;BMP180;11580;52.562;13.418;2022-09-12T04:58:36;100817.00;;;16.10
22828;BMP180;11580;52.562;13.418;2022-09-12T05:01:08;100816.00;;;16.10
22828;BMP180;11580;52.562;13.418;2022-09-12T05:03:36;100824.00;;;16.10
22828;BMP180;11580;52.562;13.418;2022-09-12T05:06:06;100823.00;;;16.20
22828;BMP180;11580;52.562;13.418;2022-09-12T05:08:34;100818.00;;;16.20
22828;BMP180;11580;52.562;13.418;2022-09-12T05:11:02;100815.00;;;16.20
22828;BMP180;11580;52.562;13.418;2022-09-12T05:13:31;100817.00;;;16.30
22828;BMP180;11580;52.562;13.418;2022-09-12T05:16:02;100800.00;;;16.30
22828;BMP180;11580;52.562;13.418;2022-09-12T05:18:34;100816.00;;;16.30
22828;BMP180;11580;52.562;13.418;2022-09-12T05:21:03;100824.00;;;16.30
22828;BMP180;11580;52.562;13.418;2022-09-12T05:23:31;100828.00;;;16.40
22828;BMP180;11580;52.562;13.418;2022-09-12T05:26:00;100833.00;;;16.40
22828;BMP180;11580;52.562;13.418;2022-09-12T05:28:31;100827.00;;;16.50
22828;BMP180;11580;52.562;13.418;2022-09-12T05:31:01;100828.00;;;16.50
22828;BMP180;11580;52.562;13.418;2022-09-12T05:33:28;100835.00;;;16.50
22828;BMP180;11580;52.562;13.418;2022-09-12T05:35:57;100834.00;;;16.60
22828;BMP180;11580;52.562;13.418;2022-09-12T05:38:24;100836.00;;;16.60
22828;BMP180;11580;52.562;13.418;2022-09-12T05:41:01;100851.00;;;16.70
22828;BMP180;11580;52.562;13.418;2022-09-12T05:43:29;100844.00;;;16.70
22828;BMP180;11580;52.562;13.418;2022-09-12T05:46:00;100818.00;;;16.80
22828;BMP180;11580;52.562;13.418;2022-09-12T05:48:28;100845.00;;;16.80
22828;BMP180;11580;52.562;13.418;2022-09-12T05:51:01;100851.00;;;16.90
22828;BMP180;11580;52.562;13.418;2022-09-12T05:53:30;100853.00;;;16.90
22828;BMP180;11580;52.562;13.418;2022-09-12T05:56:06;100860.00;;;17.00
22828;BMP180;11580;52.562;13.418;2022-09-12T05:58:35;100855.00;;;17.00
22828;BMP180;11580;52.562;13.418;2022-09-12T06:01:04;100859.00;;;17.10
22828;BMP180;11580;52.562;13.418;2022-09-12T06:03:32;100865.00;;;17.10
22828;BMP180;11580;52.562;13.418;2022-09-12T06:06:06;100858.00;;;17.20
22828;BMP180;11580;52.562;13.418;2022-09-12T06:08:34;100867.00;;;17.20
22828;BMP180;11580;52.562;13.418;2022-09-12T06:11:05;100876.00;;;17.30
22828;BMP180;11580;52.562;13.418;2022-09-12T06:13:35;100853.00;;;17.30
22828;BMP180;11580;52.562;13.418;2022-09-12T06:16:04;100871.00;;;17.40
22828;BMP180;11580;52.562;13.418;2022-09-12T06:18:33;100869.00;;;17.50
22828;BMP180;11580;52.562;13.418;2022-09-12T06:21:05;100873.00;;;17.50
22828;BMP180;11580;52.562;13.418;2022-09-12T06:23:33;100856.00;;;17.60
22828;BMP180;11580;52.562;13.418;2022-09-12T06:26:02;100874.00;;;17.60
22828;BMP180;11580;52.562;13.418;2022-09-12T06:28:30;100880.00;;;17.70
22828;BMP180;11580;52.562;13.418;2022-09-12T06:31:02;100889.00;;;17.80
22828;BMP180;11580;52.562;13.418;2022-09-12T06:33:32;100889.00;;;17.80
22828;BMP180;11580;52.562;13.418;2022-09-12T06:36:07;100889.00;;;17.90
22828;BMP180;11580;52.562;13.418;2022-09-12T06:38:35;100894.00;;;17.90
22828;BMP180;11580;52.562;13.418;2022-09-12T06:41:03;100886.00;;;18.00
22828;BMP180;11580;52.562;13.418;2022-09-12T06:43:31;100891.00;;;18.10
22828;BMP180;11580;52.562;13.418;2022-09-12T06:45:59;100901.00;;;18.10
22828;BMP180;11580;52.562;13.418;2022-09-12T06:48:27;100892.00;;;18.20
22828;BMP180;11580;52.562;13.418;2022-09-12T06:50:56;100902.00;;;18.30
22828;BMP180;11580;52.562;13.418;2022-09-12T06:53:27;100894.00;;;18.30
22828;BMP180;11580;52.562;13.418;2022-09-12T06:55:56;100896.00;;;18.40
22828;BMP180;11580;52.562;13.418;2022-09-12T06:58:25;100898.00;;;18.50
22828;BMP180;11580;52.562;13.418;2022-09-12T07:00:59;100897.00;;;18.60
22828;BMP180;11580;52.562;13.418;2022-09-12T07:03:27;100905.00;;;18.70
22828;BMP180;11580;52.562;13.418;2022-09-12T07:05:54;100902.00;;;18.70
22828;BMP180;11580;52.562;13.418;2022-09-12T07:08:22;100895.00;;;18.80
22828;BMP180;11580;52.562;13.418;2022-09-12T07:10:50;100884.00;;;18.90
22828;BMP180;11580;52.562;13.418;2022-09-12T07:13:17;100896.00;;;19.00
22828;BMP180;11580;52.562;13.418;2022-09-12T07:15:44;100890.00;;;19.00
22828;BMP180;11580;52.562;13.418;2022-09-12T07:18:12;100889.00;;;19.10
22828;BMP180;11580;52.562;13.418;2022-09-12T07:20:39;100892.00;;;19.10
22828;BMP180;11580;52.562;13.418;2022-09-12T07:23:06;100884.00;;;19.20
22828;BMP180;11580;52.562;13.418;2022-09-12T07:25:33;100895.00;;;19.30
22828;BMP180;11580;52.562;13.418;2022-09-12T07:28:02;100890.00;;;19.30
22828;BMP180;11580;52.562;13.418;2022-09-12T07:30:29;100902.00;;;19.40
22828;BMP180;11580;52.562;13.418;2022-09-12T07:32:56;100897.00;;;19.50
22828;BMP180;11580;52.562;13.418;2022-09-12T07:35:24;100893.00;;;19.60
22828;BMP180;11580;52.562;13.418;2022-09-12T07:37:51;100900.00;;;19.60
22828;BMP180;11580;52.562;13.418;2022-09-12T07:40:18;100898.00;;;19.70
22828;BMP180;11580;52.562;13.418;2022-09-12T07:42:45;100889.00;;;19.70
22828;BMP180;11580;52.562;13.418;2022-09-12T07:45:14;100892.00;;;19.80
22828;BMP180;11580;52.562;13.418;2022-09-12T07:47:41;100908.00;;;19.90
22828;BMP180;11580;52.562;13.418;2022-09-12T07:50:09;100902.00;;;20.00
22828;BMP180;11580;52.562;13.418;2022-09-12T07:52:36;100903.00;;;20.00
22828;BMP180;11580;52.562;13.418;2022-09-12T07:55:04;100899.00;;;20.10
22828;BMP180;11580;52.562;13.418;2022-09-12T07:57:32;100905.00;;;20.20
22828;BMP180;11580;52.562;13.418;2022-09-12T07:59:59;100895.00;;;20.30
22828;BMP180;11580;52.562;13.418;2022-09-12T08:02:27;100907.00;;;20.40
22828;BMP180;11580;52.562;13.418;2022-09-12T08:04:54;100904.00;;;20.40
22828;BMP180;11580;52.562;13.418;2022-09-12T08:07:22;100902.00;;;20.50
22828;BMP180;11580;52.562;13.418;2022-09-12T08:09:49;100897.00;;;20.50
22828;BMP180;11580;52.562;13.418;2022-09-12T08:12:16;100903.00;;;20.60
22828;BMP180;11580;52.562;13.418;2022-09-12T08:14:45;100908.00;;;20.70
22828;BMP180;11580;52.562;13.418;2022-09-12T08:17:13;100913.00;;;20.80
22828;BMP180;11580;52.562;13.418;2022-09-12T08:19:41;100901.00;;;20.90
22828;BMP180;11580;52.562;13.418;2022-09-12T08:22:09;100913.00;;;21.00
22828;BMP180;11580;52.562;13.418;2022-09-12T08:24:37;100915.00;;;21.10
22828;BMP180;11580;52.562;13.418;2022-09-12T08:27:05;100920.00;;;21.30
22828;BMP180;11580;52.562;13.418;2022-09-12T08:29:32;100919.00;;;21.40
22828;BMP180;11580;52.562;13.418;2022-09-12T08:31:59;100909.00;;;21.50
22828;BMP180;11580;52.562;13.418;2022-09-12T08:34:27;100912.00;;;21.50
22828;BMP180;11580;52.562;13.418;2022-09-12T08:36:55;100921.00;;;21.60
22828;BMP180;11580;52.562;13.418;2022-09-12T08:39:22;100916.00;;;21.70
22828;BMP180;11580;52.562;13.418;2022-09-12T08:41:59;100918.00;;;21.80
22828;BMP180;11580;52.562;13.418;2022-09-12T08:44:44;100929.00;;;21.90
22828;BMP180;11580;52.562;13.418;2022-09-12T08:47:22;100917.00;;;21.90
22828;BMP180;11580;52.562;13.418;2022-09-12T08:50:19;100920.00;;;21.90
22828;BMP180;11580;52.562;13.418;2022-09-12T08:52:56;100923.00;;;21.90
22828;BMP180;11580;52.562;13.418;2022-09-12T08:55:31;100900.00;;;22.00
22828;BMP180;11580;52.562;13.418;2022-09-12T08:58:01;100912.00;;;22.00
22828;BMP180;11580;52.562;13.418;2022-09-12T09:00:42;100915.00;;;22.00
22828;BMP180;11580;52.562;13.418;2022-09-12T09:03:44;100917.00;;;22.10
22828;BMP180;11580;52.562;13.418;2022-09-12T09:06:32;100910.00;;;22.10
22828;BMP180;11580;52.562;13.418;2022-09-12T09:09:13;100904.00;;;22.20
22828;BMP180;11580;52.562;13.418;2022-09-12T09:11:56;100913.00;;;22.30
22828;BMP180;11580;52.562;13.418;2022-09-12T09:14:59;100905.00;;;22.40
22828;BMP180;11580;52.562;13.418;2022-09-12T09:17:39;100906.00;;;22.40
22828;BMP180;11580;52.562;13.418;2022-09-12T09:20:21;100907.00;;;22.50
22828;BMP180;11580;52.562;13.418;2022-09-12T09:22:56;100903.00;;;22.60
22828;BMP180;11580;52.562;13.418;2022-09-12T09:25:39;100918.00;;;22.60
22828;BMP180;11580;52.562;13.418;2022-09-12T09:28:16;100908.00;;;22.70
22828;BMP180;11580;52.562;13.418;2022-09-12T09:30:45;100901.00;;;22.70
22828;BMP180;11580;52.562;13.418;2022-09-12T09:33:20;100900.00;;;22.80
22828;BMP180;11580;52.562;13.418;2022-09-12T09:35:55;100885.00;;;22.80
22828;BMP180;11580;52.562;13.418;2022-09-12T09:38:39;100904.00;;;22.90
22828;BMP180;11580;52.562;13.418;2022-09-12T09:41:32;100908.00;;;23.00
22828;BMP180;11580;52.562;13.418;2022-09-12T09:44:04;100903.00;;;23.10
22828;BMP180;11580;52.562;13.418;2022-09-12T09:46:32;100899.00;;;23.20
22828;BMP180;11580;52.562;13.418;2022-09-12T09:49:00;100874.00;;;23.30
22828;BMP180;11580;52.562;13.418;2022-09-12T09:51:35;100899.00;;;23.40
22828;BMP180;11580;52.562;13.418;2022-09-12T09:54:16;100900.00;;;23.50
22828;BMP180;11580;52.562;13.418;2022-09-12T09:56:45;100877.00;;;23.60
22828;BMP180;11580;52.562;13.418;2022-09-12T09:59:17;100900.00;;;23.60
22828;BMP180;11580;52.562;13.418;2022-09-12T10:01:48;100899.00;;;23.70
22828;BMP180;11580;52.562;13.418;2022-09-12T10:04:21;100889.00;;;23.70
22828;BMP180;11580;52.562;13.418;2022-09-12T10:06:51;100902.00;;;23.70
22828;BMP180;11580;52.562;13.418;2022-09-12T10:09:25;100904.00;;;23.70
22828;BMP180;11580;52.562;13.418;2022-09-12T10:11:56;100899.00;;;23.60
22828;BMP180;11580;52.562;13.418;2022-09-12T10:14:36;100897.00;;;23.50
22828;BMP180;11580;52.562;13.418;2022-09-12T10:17:30;100891.00;;;23.50
22828;BMP180;11580;52.562;13.418;2022-09-12T10:19:57;100885.00;;;23.40
22828;BMP180;11580;52.562;13.418;2022-09-12T10:22:28;100892.00;;;23.40
22828;BMP180;11580;52.562;13.418;2022-09-12T10:24:58;100884.00;;;23.30
22828;BMP180;11580;52.562;13.418;2022-09-12T10:27:31;100885.00;;;23.30
22828;BMP180;11580;52.562;13.418;2022-09-12T10:30:03;100889.00;;;23.40
22828;BMP180;11580;52.562;13.418;2022-09-12T10:32:38;100892.00;;;23.40
22828;BMP180;11580;52.562;13.418;2022-09-12T10:35:16;100887.00;;;23.50
22828;BMP180;11580;52.562;13.418;2022-09-12T10:37:54;100878.00;;;23.60
22828;BMP180;11580;52.562;13.418;2022-09-12T10:40:26;100881.00;;;23.60
22828;BMP180;11580;52.562;13.418;2022-09-12T10:42:57;100890.00;;;23.70
22828;BMP180;11580;52.562;13.418;2022-09-12T10:45:28;100880.00;;;23.80
22828;BMP180;11580;52.562;13.418;2022-09-12T10:47:59;100888.00;;;23.80
22828;BMP180;11580;52.562;13.418;2022-09-12T10:50:34;100878.00;;;23.90
22828;BMP180;11580;52.562;13.418;2022-09-12T10:53:20;100873.00;;;24.00
22828;BMP180;11580;52.562;13.418;2022-09-12T10:56:01;100876.00;;;24.20
22828;BMP180;11580;52.562;13.418;2022-09-12T10:58:45;100870.00;;;24.30
22828;BMP180;11580;52.562;13.418;2022-09-12T11:01:33;100875.00;;;24.40
22828;BMP180;11580;52.562;13.418;2022-09-12T11:04:20;100872.00;;;24.50
22828;BMP180;11580;52.562;13.418;2022-09-12T11:07:13;100876.00;;;24.60
22828;BMP180;11580;52.562;13.418;2022-09-12T11:09:54;100879.00;;;24.70
22828;BMP180;11580;52.562;13.418;2022-09-12T11:12:37;100874.00;;;24.80
22828;BMP180;11580;52.562;13.418;2022-09-12T11:15:36;100873.00;;;24.90
22828;BMP180;11580;52.562;13.418;2022-09-12T11:18:17;100877.00;;;25.00
22828;BMP180;11580;52.562;13.418;2022-09-12T11:21:16;100886.00;;;25.10
22828;BMP180;11580;52.562;13.418;2022-09-12T11:24:28;100889.00;;;25.20
22828;BMP180;11580;52.562;13.418;2022-09-12T11:27:20;100882.00;;;25.20
22828;BMP180;11580;52.562;13.418;2022-09-12T11:29:58;100888.00;;;25.30
22828;BMP180;11580;52.562;13.418;2022-09-12T11:32:52;100891.00;;;25.50
22828;BMP180;11580;52.562;13.418;2022-09-12T11:35:28;100885.00;;;25.50
22828;BMP180;11580;52.562;13.418;2022-09-12T11:38:16;100885.00;;;25.70
22828;BMP180;11580;52.562;13.418;2022-09-12T11:40:49;100878.00;;;25.80
22828;BMP180;11580;52.562;13.418;2022-09-12T11:43:35;100885.00;;;26.00
22828;BMP180;11580;52.562;13.418;2022-09-12T11:46:15;100891.00;;;26.10
22828;BMP180;11580;52.562;13.418;2022-09-12T11:48:52;100874.00;;;26.20
22828;BMP180;11580;52.562;13.418;2022-09-12T11:51:26;100851.00;;;26.30
22828;BMP180;11580;52.562;13.418;2022-09-12T11:54:14;100870.00;;;26.40
22828;BMP180;11580;52.562;13.418;2022-09-12T11:56:49;100863.00;;;26.40
22828;BMP180;11580;52.562;13.418;2022-09-12T11:59:36;100862.00;;;26.40
22828;BMP180;11580;52.562;13.418;2022-09-12T12:02:14;100857.00;;;26.30
22828;BMP180;11580;52.562;13.418;2022-09-12T12:05:05;100863.00;;;26.20
22828;BMP180;11580;52.562;13.418;2022-09-12T12:07:50;100855.00;;;26.10
22828;BMP180;11580;52.562;13.418;2022-09-12T12:10:27;100853.00;;;26.10
22828;BMP180;11580;52.562;13.418;2022-09-12T12:12:57;100852.00;;;26.00
22828;BMP180;11580;52.562;13.418;2022-09-12T12:15:27;100848.00;;;26.00
22828;BMP180;11580;52.562;13.418;2022-09-12T12:18:15;100845.00;;;25.90
22828;BMP180;11580;52.562;13.418;2022-09-12T12:20:44;100838.00;;;25.90
22828;BMP180;11580;52.562;13.418;2022-09-12T12:23:24;100844.00;;;25.90
22828;BMP180;11580;52.562;13.418;2022-09-12T12:25:54;100834.00;;;25.80
22828;BMP180;11580;52.562;13.418;2022-09-12T12:28:58;100831.00;;;25.70
22828;BMP180;11580;52.562;13.418;2022-09-12T12:31:26;100830.00;;;25.70
22828;BMP180;11580;52.562;13.418;2022-09-12T12:34:26;100838.00;;;25.70
22828;BMP180;11580;52.562;13.418;2022-09-12T12:36:56;100833.00;;;25.70
22828;BMP180;11580;52.562;13.418;2022-09-12T12:39:55;100832.00;;;25.70
22828;BMP180;11580;52.562;13.418;2022-09-12T12:43:03;100833.00;;;25.80
22828;BMP180;11580;52.562;13.418;2022-09-12T12:46:02;100839.00;;;25.90
22828;BMP180;11580;52.562;13.418;2022-09-12T12:49:07;100833.00;;;25.90
22828;BMP180;11580;52.562;13.418;2022-09-12T12:51:55;100822.00;;;26.00
22828;BMP180;11580;52.562;13.418;2022-09-12T12:54:33;100847.00;;;26.10
22828;BMP180;11580;52.562;13.418;2022-09-12T12:57:37;100846.00;;;26.30
22828;BMP180;11580;52.562;13.418;2022-09-12T13:00:25;100844.00;;;26.40
22828;BMP180;11580;52.562;13.418;2022-09-12T13:02:58;100848.00;;;26.50
22828;BMP180;11580;52.562;13.418;2022-09-12T13:05:29;100852.00;;;26.70
22828;BMP180;11580;52.562;13.418;2022-09-12T13:08:08;100846.00;;;26.80
22828;BMP180;11580;52.562;13.418;2022-09-12T13:10:37;100837.00;;;26.90
22828;BMP180;11580;52.562;13.418;2022-09-12T13:13:07;100838.00;;;27.00
22828;BMP180;11580;52.562;13.418;2022-09-12T13:15:51;100823.00;;;27.10
22828;BMP180;11580;52.562;13.418;2022-09-12T13:18:24;100837.00;;;27.10
22828;BMP180;11580;52.562;13.418;2022-09-12T13:21:03;100832.00;;;27.10
22828;BMP180;11580;52.562;13.418;2022-09-12T13:23:35;100829.00;;;27.10
22828;BMP180;11580;52.562;13.418;2022-09-12T13:26:08;100824.00;;;27.10
22828;BMP180;11580;52.562;13.418;2022-09-12T13:28:36;100827.00;;;27.10
22828;BMP180;11580;52.562;13.418;2022-09-12T13:31:14;100824.00;;;27.10
22828;BMP180;11580;52.562;13.418;2022-09-12T13:33:48;100822.00;;;27.20
22828;BMP180;11580;52.562;13.418;2022-09-12T13:36:57;100817.00;;;27.20
22828;BMP180;11580;52.562;13.418;2022-09-12T13:39:45;100814.00;;;27.20
22828;BMP180;11580;52.562;13.418;2022-09-12T13:42:40;100817.00;;;27.20
22828;BMP180;11580;52.562;13.418;2022-09-12T13:45:16;100810.00;;;27.10
22828;BMP180;11580;52.562;13.418;2022-09-12T13:47:47;100810.00;;;27.10
22828;BMP180;11580;52.562;13.418;2022-09-12T13:50:18;100799.00;;;27.10
22828;BMP180;11580;52.562;13.418;2022-09-12T13:52:52;100788.00;;;27.00
22828;BMP180;11580;52.562;13.418;2022-09-12T13:55:31;100799.00;;;27.10
22828;BMP180;11580;52.562;13.418;2022-09-12T13:58:01;100800.00;;;27.10
22828;BMP180;11580;52.562;13.418;2022-09-12T14:00:30;100791.00;;;27.10
22828;BMP180;11580;52.562;13.418;2022-09-12T14:02:58;100799.00;;;27.10
22828;BMP180;11580;52.562;13.418;2022-09-12T14:05:53;100799.00;;;27.10
22828;BMP180;11580;52.562;13.418;2022-09-12T14:08:22;100796.00;;;27.10
22828;BMP180;11580;52.562;13.418;2022-09-12T14:10:51;100799.00;;;27.10
22828;BMP180;11580;52.562;13.418;2022-09-12T14:13:23;100797.00;;;27.20
22828;BMP180;11580;52.562;13.418;2022-09-12T14:15:53;100795.00;;;27.20
22828;BMP180;11580;52.562;13.418;2022-09-12T14:18:25;100795.00;;;27.20
22828;BMP180;11580;52.562;13.418;2022-09-12T14:20:53;100796.00;;;27.20
22828;BMP180;11580;52.562;13.418;2022-09-12T14:23:27;100793.00;;;27.20
22828;BMP180;11580;52.562;13.418;2022-09-12T14:25:59;100786.00;;;27.20
22828;BMP180;11580;52.562;13.418;2022-09-12T14:28:28;100800.00;;;27.20
22828;BMP180;11580;52.562;13.418;2022-09-12T14:31:03;100789.00;;;27.20